Colebrook, Connecticut
Current Conditions -  °F | °C
As of 1:51 PM on Thursday 30 Oct 2014 (Local Time) from KBDL Reporting Station
Broken Clouds Broken Clouds  
Wind Chill: 56°   Ceiling: 5000
Heat Index: 56°   Visibility: 10mi
Dew Point: 34°   Wind: 12mph
Humidity: 44%   Direction: 310°NW
Pressure: 29.94"   Gusts: NA
Location:  41.99°N, 73.1°W
Report Text: KBDL 301751Z 31010KT 10SM BKN050 13/01 A2994 RMK AO2 SLP139 T01330011 10150 20050 58008
Loading
Personal Weather Stations






























Interactive Weather Map New forecast layout! Learn more

10-Day Weather Forecast

Advertisements
Track Severe Weather on mobile